sensor_id;sensor_type;location;lat;lon;timestamp;P1;durP1;ratioP1;P2;durP2;ratioP2
58260;SDS011;44058;52.898;6.502;2024-01-25T00:00:35;23.27;;;3.90;;
58260;SDS011;44058;52.898;6.502;2024-01-25T00:03:02;26.05;;;4.63;;
58260;SDS011;44058;52.898;6.502;2024-01-25T00:05:29;23.23;;;4.22;;
58260;SDS011;44058;52.898;6.502;2024-01-25T00:07:56;19.63;;;4.47;;
58260;SDS011;44058;52.898;6.502;2024-01-25T00:10:23;26.33;;;4.35;;
58260;SDS011;44058;52.898;6.502;2024-01-25T00:12:50;24.33;;;4.72;;
58260;SDS011;44058;52.898;6.502;2024-01-25T00:15:17;26.88;;;5.10;;
58260;SDS011;44058;52.898;6.502;2024-01-25T00:17:44;19.80;;;3.88;;
58260;SDS011;44058;52.898;6.502;2024-01-25T00:20:11;26.83;;;4.90;;
58260;SDS011;44058;52.898;6.502;2024-01-25T00:22:38;24.98;;;4.50;;
58260;SDS011;44058;52.898;6.502;2024-01-25T00:25:05;21.15;;;4.20;;
58260;SDS011;44058;52.898;6.502;2024-01-25T00:27:32;31.05;;;4.53;;
58260;SDS011;44058;52.898;6.502;2024-01-25T00:29:59;27.45;;;5.47;;
58260;SDS011;44058;52.898;6.502;2024-01-25T00:32:26;23.75;;;5.00;;
58260;SDS011;44058;52.898;6.502;2024-01-25T00:34:53;27.92;;;4.65;;
58260;SDS011;44058;52.898;6.502;2024-01-25T00:37:20;30.08;;;5.57;;
58260;SDS011;44058;52.898;6.502;2024-01-25T00:39:47;22.25;;;4.00;;
58260;SDS011;44058;52.898;6.502;2024-01-25T00:42:15;22.33;;;4.10;;
58260;SDS011;44058;52.898;6.502;2024-01-25T00:44:42;21.77;;;4.13;;
58260;SDS011;44058;52.898;6.502;2024-01-25T00:47:09;32.92;;;5.70;;
58260;SDS011;44058;52.898;6.502;2024-01-25T00:49:36;24.30;;;4.40;;
58260;SDS011;44058;52.898;6.502;2024-01-25T00:52:04;25.58;;;5.32;;
58260;SDS011;44058;52.898;6.502;2024-01-25T00:54:31;28.48;;;4.60;;
58260;SDS011;44058;52.898;6.502;2024-01-25T00:56:58;23.08;;;4.75;;
58260;SDS011;44058;52.898;6.502;2024-01-25T00:59:25;22.77;;;3.85;;
58260;SDS011;44058;52.898;6.502;2024-01-25T01:01:52;28.13;;;4.43;;
58260;SDS011;44058;52.898;6.502;2024-01-25T01:04:20;19.38;;;4.45;;
58260;SDS011;44058;52.898;6.502;2024-01-25T01:06:47;26.50;;;5.18;;
58260;SDS011;44058;52.898;6.502;2024-01-25T01:09:14;24.98;;;4.28;;
58260;SDS011;44058;52.898;6.502;2024-01-25T01:11:41;29.48;;;5.47;;
58260;SDS011;44058;52.898;6.502;2024-01-25T01:14:08;24.70;;;4.78;;
58260;SDS011;44058;52.898;6.502;2024-01-25T01:16:34;27.23;;;5.22;;
58260;SDS011;44058;52.898;6.502;2024-01-25T01:19:02;30.63;;;4.82;;
58260;SDS011;44058;52.898;6.502;2024-01-25T01:21:34;32.75;;;5.43;;
58260;SDS011;44058;52.898;6.502;2024-01-25T01:24:01;22.10;;;4.57;;
58260;SDS011;44058;52.898;6.502;2024-01-25T01:26:28;23.63;;;4.50;;
58260;SDS011;44058;52.898;6.502;2024-01-25T01:28:55;31.70;;;5.20;;
58260;SDS011;44058;52.898;6.502;2024-01-25T01:31:22;27.20;;;4.47;;
58260;SDS011;44058;52.898;6.502;2024-01-25T01:33:49;24.23;;;4.55;;
58260;SDS011;44058;52.898;6.502;2024-01-25T01:36:16;29.45;;;6.18;;
58260;SDS011;44058;52.898;6.502;2024-01-25T01:38:43;25.60;;;4.85;;
58260;SDS011;44058;52.898;6.502;2024-01-25T01:41:10;26.30;;;4.68;;
58260;SDS011;44058;52.898;6.502;2024-01-25T01:43:38;28.08;;;5.28;;
58260;SDS011;44058;52.898;6.502;2024-01-25T01:46:20;27.25;;;4.53;;
58260;SDS011;44058;52.898;6.502;2024-01-25T01:48:50;30.83;;;4.68;;
58260;SDS011;44058;52.898;6.502;2024-01-25T01:51:17;19.92;;;4.03;;
58260;SDS011;44058;52.898;6.502;2024-01-25T01:53:44;27.00;;;4.80;;
58260;SDS011;44058;52.898;6.502;2024-01-25T01:56:12;23.60;;;4.50;;
58260;SDS011;44058;52.898;6.502;2024-01-25T01:58:40;24.10;;;5.07;;
58260;SDS011;44058;52.898;6.502;2024-01-25T02:01:08;26.08;;;5.05;;
58260;SDS011;44058;52.898;6.502;2024-01-25T02:03:35;22.00;;;5.38;;
58260;SDS011;44058;52.898;6.502;2024-01-25T02:06:02;26.02;;;4.45;;
58260;SDS011;44058;52.898;6.502;2024-01-25T02:08:29;22.88;;;4.70;;
58260;SDS011;44058;52.898;6.502;2024-01-25T02:10:56;23.10;;;4.40;;
58260;SDS011;44058;52.898;6.502;2024-01-25T02:13:23;27.58;;;5.07;;
58260;SDS011;44058;52.898;6.502;2024-01-25T02:15:50;28.70;;;5.03;;
58260;SDS011;44058;52.898;6.502;2024-01-25T02:18:17;31.58;;;5.10;;
58260;SDS011;44058;52.898;6.502;2024-01-25T02:20:44;24.80;;;4.90;;
58260;SDS011;44058;52.898;6.502;2024-01-25T02:23:11;24.83;;;4.40;;
58260;SDS011;44058;52.898;6.502;2024-01-25T02:25:38;26.27;;;5.18;;
58260;SDS011;44058;52.898;6.502;2024-01-25T02:28:05;25.58;;;5.53;;
58260;SDS011;44058;52.898;6.502;2024-01-25T02:30:32;29.58;;;5.47;;
58260;SDS011;44058;52.898;6.502;2024-01-25T02:32:59;33.53;;;5.82;;
58260;SDS011;44058;52.898;6.502;2024-01-25T02:35:26;34.13;;;4.82;;
58260;SDS011;44058;52.898;6.502;2024-01-25T02:37:53;30.35;;;5.60;;
58260;SDS011;44058;52.898;6.502;2024-01-25T02:40:20;34.90;;;5.85;;
58260;SDS011;44058;52.898;6.502;2024-01-25T02:42:47;31.40;;;4.55;;
58260;SDS011;44058;52.898;6.502;2024-01-25T02:45:14;24.65;;;4.63;;
58260;SDS011;44058;52.898;6.502;2024-01-25T02:47:41;27.08;;;4.28;;
58260;SDS011;44058;52.898;6.502;2024-01-25T02:50:09;25.27;;;4.97;;
58260;SDS011;44058;52.898;6.502;2024-01-25T02:52:36;26.38;;;5.22;;
58260;SDS011;44058;52.898;6.502;2024-01-25T02:55:03;26.75;;;5.15;;
58260;SDS011;44058;52.898;6.502;2024-01-25T02:57:30;29.98;;;5.88;;
58260;SDS011;44058;52.898;6.502;2024-01-25T02:59:57;30.35;;;5.60;;
58260;SDS011;44058;52.898;6.502;2024-01-25T03:02:24;25.35;;;5.50;;
58260;SDS011;44058;52.898;6.502;2024-01-25T03:04:51;26.80;;;5.35;;
58260;SDS011;44058;52.898;6.502;2024-01-25T03:07:18;25.48;;;4.80;;
58260;SDS011;44058;52.898;6.502;2024-01-25T03:09:45;31.40;;;5.68;;
58260;SDS011;44058;52.898;6.502;2024-01-25T03:12:12;31.52;;;5.13;;
58260;SDS011;44058;52.898;6.502;2024-01-25T03:14:39;22.73;;;4.38;;
58260;SDS011;44058;52.898;6.502;2024-01-25T03:17:06;37.60;;;5.95;;
58260;SDS011;44058;52.898;6.502;2024-01-25T03:19:33;23.63;;;4.82;;
58260;SDS011;44058;52.898;6.502;2024-01-25T03:22:00;25.55;;;5.30;;
58260;SDS011;44058;52.898;6.502;2024-01-25T03:24:28;28.02;;;5.40;;
58260;SDS011;44058;52.898;6.502;2024-01-25T03:26:54;32.05;;;5.22;;
58260;SDS011;44058;52.898;6.502;2024-01-25T03:29:20;24.95;;;4.57;;
58260;SDS011;44058;52.898;6.502;2024-01-25T03:31:46;34.10;;;4.95;;
58260;SDS011;44058;52.898;6.502;2024-01-25T03:34:13;30.75;;;5.80;;
58260;SDS011;44058;52.898;6.502;2024-01-25T03:36:39;28.58;;;4.78;;
58260;SDS011;44058;52.898;6.502;2024-01-25T03:39:06;19.40;;;4.22;;
58260;SDS011;44058;52.898;6.502;2024-01-25T03:41:32;22.98;;;4.03;;
58260;SDS011;44058;52.898;6.502;2024-01-25T03:43:58;26.98;;;5.03;;
58260;SDS011;44058;52.898;6.502;2024-01-25T03:46:25;27.73;;;4.95;;
58260;SDS011;44058;52.898;6.502;2024-01-25T03:48:51;27.48;;;5.03;;
58260;SDS011;44058;52.898;6.502;2024-01-25T03:51:19;28.83;;;4.97;;
58260;SDS011;44058;52.898;6.502;2024-01-25T03:53:45;27.50;;;4.60;;
58260;SDS011;44058;52.898;6.502;2024-01-25T03:56:12;25.58;;;4.78;;
58260;SDS011;44058;52.898;6.502;2024-01-25T03:58:38;25.00;;;4.97;;
58260;SDS011;44058;52.898;6.502;2024-01-25T04:01:05;31.75;;;4.80;;
58260;SDS011;44058;52.898;6.502;2024-01-25T04:03:31;25.83;;;4.93;;
58260;SDS011;44058;52.898;6.502;2024-01-25T04:05:57;30.15;;;5.47;;
58260;SDS011;44058;52.898;6.502;2024-01-25T04:08:23;25.27;;;4.82;;
58260;SDS011;44058;52.898;6.502;2024-01-25T04:10:49;25.95;;;4.97;;
58260;SDS011;44058;52.898;6.502;2024-01-25T04:13:16;28.17;;;4.47;;
58260;SDS011;44058;52.898;6.502;2024-01-25T04:15:42;35.25;;;5.93;;
58260;SDS011;44058;52.898;6.502;2024-01-25T04:18:08;23.27;;;5.28;;
58260;SDS011;44058;52.898;6.502;2024-01-25T04:20:34;26.88;;;5.70;;
58260;SDS011;44058;52.898;6.502;2024-01-25T04:23:00;25.55;;;4.32;;
58260;SDS011;44058;52.898;6.502;2024-01-25T04:25:27;26.58;;;5.43;;
58260;SDS011;44058;52.898;6.502;2024-01-25T04:27:54;32.28;;;4.63;;
58260;SDS011;44058;52.898;6.502;2024-01-25T04:30:21;21.98;;;4.85;;
58260;SDS011;44058;52.898;6.502;2024-01-25T04:32:48;21.10;;;4.70;;
58260;SDS011;44058;52.898;6.502;2024-01-25T04:35:15;25.30;;;4.68;;
58260;SDS011;44058;52.898;6.502;2024-01-25T04:37:42;22.67;;;4.15;;
58260;SDS011;44058;52.898;6.502;2024-01-25T04:40:09;27.83;;;4.65;;
58260;SDS011;44058;52.898;6.502;2024-01-25T04:42:37;28.70;;;5.03;;
58260;SDS011;44058;52.898;6.502;2024-01-25T04:45:04;25.92;;;5.32;;
58260;SDS011;44058;52.898;6.502;2024-01-25T04:47:31;29.67;;;4.95;;
58260;SDS011;44058;52.898;6.502;2024-01-25T04:49:58;32.30;;;5.10;;
58260;SDS011;44058;52.898;6.502;2024-01-25T04:52:25;20.27;;;4.32;;
58260;SDS011;44058;52.898;6.502;2024-01-25T04:54:52;34.55;;;6.38;;
58260;SDS011;44058;52.898;6.502;2024-01-25T04:57:19;32.17;;;4.65;;
58260;SDS011;44058;52.898;6.502;2024-01-25T04:59:46;23.42;;;4.75;;
58260;SDS011;44058;52.898;6.502;2024-01-25T05:02:12;29.17;;;5.45;;
58260;SDS011;44058;52.898;6.502;2024-01-25T05:04:40;32.58;;;4.55;;
58260;SDS011;44058;52.898;6.502;2024-01-25T05:07:07;25.48;;;5.18;;
58260;SDS011;44058;52.898;6.502;2024-01-25T05:09:34;23.48;;;4.63;;
58260;SDS011;44058;52.898;6.502;2024-01-25T05:12:00;30.73;;;5.65;;
58260;SDS011;44058;52.898;6.502;2024-01-25T05:14:28;25.25;;;4.82;;
58260;SDS011;44058;52.898;6.502;2024-01-25T05:16:55;24.88;;;4.85;;
58260;SDS011;44058;52.898;6.502;2024-01-25T05:19:21;25.38;;;5.03;;
58260;SDS011;44058;52.898;6.502;2024-01-25T05:21:48;29.92;;;4.68;;
58260;SDS011;44058;52.898;6.502;2024-01-25T05:24:15;24.15;;;4.60;;
58260;SDS011;44058;52.898;6.502;2024-01-25T05:26:42;29.27;;;5.70;;
58260;SDS011;44058;52.898;6.502;2024-01-25T05:29:09;37.28;;;6.47;;
58260;SDS011;44058;52.898;6.502;2024-01-25T05:31:36;33.40;;;5.53;;
58260;SDS011;44058;52.898;6.502;2024-01-25T05:34:03;30.17;;;4.80;;
58260;SDS011;44058;52.898;6.502;2024-01-25T05:36:30;27.15;;;5.00;;
58260;SDS011;44058;52.898;6.502;2024-01-25T05:38:57;24.13;;;4.90;;
58260;SDS011;44058;52.898;6.502;2024-01-25T05:41:24;23.83;;;5.65;;
58260;SDS011;44058;52.898;6.502;2024-01-25T05:43:51;26.98;;;4.72;;
58260;SDS011;44058;52.898;6.502;2024-01-25T05:46:18;26.45;;;5.32;;
58260;SDS011;44058;52.898;6.502;2024-01-25T05:48:45;30.73;;;5.43;;
58260;SDS011;44058;52.898;6.502;2024-01-25T05:51:12;26.83;;;5.10;;
58260;SDS011;44058;52.898;6.502;2024-01-25T05:53:40;32.67;;;5.28;;
58260;SDS011;44058;52.898;6.502;2024-01-25T05:56:06;23.98;;;4.90;;
58260;SDS011;44058;52.898;6.502;2024-01-25T05:58:33;34.97;;;5.55;;
58260;SDS011;44058;52.898;6.502;2024-01-25T06:01:00;24.23;;;5.65;;
58260;SDS011;44058;52.898;6.502;2024-01-25T06:03:28;32.53;;;4.82;;
58260;SDS011;44058;52.898;6.502;2024-01-25T06:05:55;29.75;;;5.78;;
58260;SDS011;44058;52.898;6.502;2024-01-25T06:08:22;28.98;;;6.05;;
58260;SDS011;44058;52.898;6.502;2024-01-25T06:10:49;29.52;;;6.28;;
58260;SDS011;44058;52.898;6.502;2024-01-25T06:13:16;37.13;;;7.15;;
58260;SDS011;44058;52.898;6.502;2024-01-25T06:15:43;29.77;;;6.18;;
58260;SDS011;44058;52.898;6.502;2024-01-25T06:18:10;27.75;;;6.57;;
58260;SDS011;44058;52.898;6.502;2024-01-25T06:20:37;25.50;;;6.82;;
58260;SDS011;44058;52.898;6.502;2024-01-25T06:23:04;31.25;;;5.47;;
58260;SDS011;44058;52.898;6.502;2024-01-25T06:25:31;30.02;;;6.43;;
58260;SDS011;44058;52.898;6.502;2024-01-25T06:28:00;29.05;;;6.03;;
58260;SDS011;44058;52.898;6.502;2024-01-25T06:30:27;34.05;;;5.95;;
58260;SDS011;44058;52.898;6.502;2024-01-25T06:32:54;33.40;;;6.45;;
58260;SDS011;44058;52.898;6.502;2024-01-25T06:35:21;29.25;;;5.55;;
58260;SDS011;44058;52.898;6.502;2024-01-25T06:37:48;28.55;;;5.78;;
58260;SDS011;44058;52.898;6.502;2024-01-25T06:40:15;26.50;;;5.35;;
58260;SDS011;44058;52.898;6.502;2024-01-25T06:42:42;24.05;;;4.85;;
58260;SDS011;44058;52.898;6.502;2024-01-25T06:45:10;26.20;;;4.95;;
58260;SDS011;44058;52.898;6.502;2024-01-25T06:47:38;28.50;;;5.03;;
58260;SDS011;44058;52.898;6.502;2024-01-25T06:50:05;33.95;;;5.43;;
58260;SDS011;44058;52.898;6.502;2024-01-25T06:52:32;31.08;;;5.45;;
58260;SDS011;44058;52.898;6.502;2024-01-25T06:54:59;28.65;;;5.10;;
58260;SDS011;44058;52.898;6.502;2024-01-25T06:57:26;29.52;;;5.10;;
58260;SDS011;44058;52.898;6.502;2024-01-25T06:59:53;28.98;;;5.45;;
58260;SDS011;44058;52.898;6.502;2024-01-25T07:02:20;20.35;;;5.25;;
58260;SDS011;44058;52.898;6.502;2024-01-25T07:04:47;25.70;;;4.75;;
58260;SDS011;44058;52.898;6.502;2024-01-25T07:07:14;22.95;;;5.53;;
58260;SDS011;44058;52.898;6.502;2024-01-25T07:09:41;29.38;;;4.93;;
58260;SDS011;44058;52.898;6.502;2024-01-25T07:12:08;31.58;;;6.22;;
58260;SDS011;44058;52.898;6.502;2024-01-25T07:14:35;31.27;;;5.43;;
58260;SDS011;44058;52.898;6.502;2024-01-25T07:17:02;27.58;;;5.38;;
58260;SDS011;44058;52.898;6.502;2024-01-25T07:19:29;21.98;;;4.72;;
58260;SDS011;44058;52.898;6.502;2024-01-25T07:21:56;35.72;;;6.30;;
58260;SDS011;44058;52.898;6.502;2024-01-25T07:24:23;31.60;;;7.10;;
58260;SDS011;44058;52.898;6.502;2024-01-25T07:26:52;34.45;;;6.15;;
58260;SDS011;44058;52.898;6.502;2024-01-25T07:29:19;33.88;;;6.00;;
58260;SDS011;44058;52.898;6.502;2024-01-25T07:31:46;24.90;;;5.07;;
58260;SDS011;44058;52.898;6.502;2024-01-25T07:34:13;35.30;;;7.07;;
58260;SDS011;44058;52.898;6.502;2024-01-25T07:36:39;35.10;;;5.28;;
58260;SDS011;44058;52.898;6.502;2024-01-25T07:39:06;33.97;;;5.43;;
58260;SDS011;44058;52.898;6.502;2024-01-25T07:41:34;25.00;;;4.95;;
58260;SDS011;44058;52.898;6.502;2024-01-25T07:44:01;25.65;;;5.38;;
58260;SDS011;44058;52.898;6.502;2024-01-25T07:46:28;36.63;;;5.82;;
58260;SDS011;44058;52.898;6.502;2024-01-25T07:48:55;31.10;;;5.50;;
58260;SDS011;44058;52.898;6.502;2024-01-25T07:51:22;31.50;;;5.30;;
58260;SDS011;44058;52.898;6.502;2024-01-25T07:53:49;26.92;;;5.25;;
58260;SDS011;44058;52.898;6.502;2024-01-25T07:56:16;26.67;;;5.05;;
58260;SDS011;44058;52.898;6.502;2024-01-25T07:58:42;31.95;;;5.05;;
58260;SDS011;44058;52.898;6.502;2024-01-25T08:01:09;32.65;;;5.40;;
58260;SDS011;44058;52.898;6.502;2024-01-25T08:03:37;32.67;;;5.57;;
58260;SDS011;44058;52.898;6.502;2024-01-25T08:06:03;30.05;;;6.07;;
58260;SDS011;44058;52.898;6.502;2024-01-25T08:08:30;34.72;;;5.90;;
58260;SDS011;44058;52.898;6.502;2024-01-25T08:10:58;24.73;;;4.95;;
58260;SDS011;44058;52.898;6.502;2024-01-25T08:13:25;35.47;;;5.72;;
58260;SDS011;44058;52.898;6.502;2024-01-25T08:18:21;26.38;;;5.00;;
58260;SDS011;44058;52.898;6.502;2024-01-25T08:20:49;34.03;;;5.55;;
58260;SDS011;44058;52.898;6.502;2024-01-25T08:23:16;32.83;;;5.07;;
58260;SDS011;44058;52.898;6.502;2024-01-25T08:25:44;32.35;;;5.45;;
58260;SDS011;44058;52.898;6.502;2024-01-25T08:28:11;28.60;;;6.38;;
58260;SDS011;44058;52.898;6.502;2024-01-25T08:30:38;31.42;;;6.20;;
58260;SDS011;44058;52.898;6.502;2024-01-25T08:33:05;30.67;;;6.38;;
58260;SDS011;44058;52.898;6.502;2024-01-25T08:35:32;35.40;;;6.18;;
58260;SDS011;44058;52.898;6.502;2024-01-25T08:37:59;36.15;;;5.35;;
58260;SDS011;44058;52.898;6.502;2024-01-25T08:40:26;29.35;;;6.25;;
58260;SDS011;44058;52.898;6.502;2024-01-25T08:42:53;30.98;;;5.60;;
58260;SDS011;44058;52.898;6.502;2024-01-25T08:45:20;36.47;;;6.60;;
58260;SDS011;44058;52.898;6.502;2024-01-25T08:47:47;32.08;;;7.20;;
58260;SDS011;44058;52.898;6.502;2024-01-25T08:50:15;33.30;;;7.32;;
58260;SDS011;44058;52.898;6.502;2024-01-25T08:52:42;37.35;;;6.97;;
58260;SDS011;44058;52.898;6.502;2024-01-25T08:55:09;32.60;;;6.15;;
58260;SDS011;44058;52.898;6.502;2024-01-25T08:57:36;31.77;;;6.07;;
58260;SDS011;44058;52.898;6.502;2024-01-25T09:00:05;29.95;;;5.63;;
58260;SDS011;44058;52.898;6.502;2024-01-25T09:02:36;37.33;;;6.50;;
58260;SDS011;44058;52.898;6.502;2024-01-25T09:05:04;31.35;;;6.10;;
58260;SDS011;44058;52.898;6.502;2024-01-25T09:07:31;28.60;;;5.65;;
58260;SDS011;44058;52.898;6.502;2024-01-25T09:09:58;29.50;;;5.82;;
58260;SDS011;44058;52.898;6.502;2024-01-25T09:12:25;34.03;;;6.40;;
58260;SDS011;44058;52.898;6.502;2024-01-25T09:14:52;33.95;;;5.40;;
58260;SDS011;44058;52.898;6.502;2024-01-25T09:17:19;29.50;;;6.30;;
58260;SDS011;44058;52.898;6.502;2024-01-25T09:19:49;38.97;;;5.28;;
58260;SDS011;44058;52.898;6.502;2024-01-25T09:22:17;25.98;;;4.80;;
58260;SDS011;44058;52.898;6.502;2024-01-25T09:24:48;36.80;;;6.18;;
58260;SDS011;44058;52.898;6.502;2024-01-25T09:27:15;37.10;;;5.95;;
58260;SDS011;44058;52.898;6.502;2024-01-25T09:29:42;34.40;;;6.47;;
58260;SDS011;44058;52.898;6.502;2024-01-25T09:32:09;35.28;;;7.07;;
58260;SDS011;44058;52.898;6.502;2024-01-25T09:34:37;32.92;;;6.97;;
58260;SDS011;44058;52.898;6.502;2024-01-25T09:37:04;33.88;;;5.18;;
58260;SDS011;44058;52.898;6.502;2024-01-25T09:39:31;27.70;;;6.10;;
58260;SDS011;44058;52.898;6.502;2024-01-25T09:41:59;34.53;;;7.00;;
58260;SDS011;44058;52.898;6.502;2024-01-25T09:44:26;35.20;;;6.88;;
58260;SDS011;44058;52.898;6.502;2024-01-25T09:46:53;37.17;;;8.20;;
58260;SDS011;44058;52.898;6.502;2024-01-25T09:49:20;36.40;;;7.20;;
58260;SDS011;44058;52.898;6.502;2024-01-25T09:51:47;33.42;;;7.68;;
58260;SDS011;44058;52.898;6.502;2024-01-25T09:54:16;38.78;;;6.57;;
58260;SDS011;44058;52.898;6.502;2024-01-25T09:56:43;34.30;;;7.82;;
58260;SDS011;44058;52.898;6.502;2024-01-25T09:59:10;38.92;;;7.88;;
58260;SDS011;44058;52.898;6.502;2024-01-25T10:01:37;30.67;;;6.03;;
58260;SDS011;44058;52.898;6.502;2024-01-25T10:04:06;33.92;;;6.70;;
58260;SDS011;44058;52.898;6.502;2024-01-25T10:06:34;38.25;;;6.45;;
58260;SDS011;44058;52.898;6.502;2024-01-25T10:09:01;32.30;;;6.43;;
58260;SDS011;44058;52.898;6.502;2024-01-25T10:11:29;32.27;;;6.27;;
58260;SDS011;44058;52.898;6.502;2024-01-25T10:14:01;34.35;;;5.70;;
58260;SDS011;44058;52.898;6.502;2024-01-25T10:16:29;30.75;;;5.72;;
58260;SDS011;44058;52.898;6.502;2024-01-25T10:18:56;28.92;;;5.78;;
58260;SDS011;44058;52.898;6.502;2024-01-25T10:21:23;25.83;;;5.60;;
58260;SDS011;44058;52.898;6.502;2024-01-25T10:23:50;30.00;;;5.93;;
58260;SDS011;44058;52.898;6.502;2024-01-25T10:28:50;31.23;;;5.90;;
58260;SDS011;44058;52.898;6.502;2024-01-25T10:31:17;32.28;;;6.70;;
58260;SDS011;44058;52.898;6.502;2024-01-25T10:33:44;34.95;;;6.18;;
58260;SDS011;44058;52.898;6.502;2024-01-25T10:36:13;33.90;;;6.63;;
58260;SDS011;44058;52.898;6.502;2024-01-25T10:38:40;34.40;;;6.53;;
58260;SDS011;44058;52.898;6.502;2024-01-25T10:41:08;35.05;;;6.60;;
58260;SDS011;44058;52.898;6.502;2024-01-25T10:43:35;29.98;;;6.38;;
58260;SDS011;44058;52.898;6.502;2024-01-25T10:46:03;32.22;;;6.65;;
58260;SDS011;44058;52.898;6.502;2024-01-25T10:48:30;32.22;;;6.43;;
58260;SDS011;44058;52.898;6.502;2024-01-25T10:50:57;36.50;;;7.50;;
58260;SDS011;44058;52.898;6.502;2024-01-25T10:53:29;31.58;;;6.88;;
58260;SDS011;44058;52.898;6.502;2024-01-25T10:55:56;31.20;;;6.80;;
58260;SDS011;44058;52.898;6.502;2024-01-25T10:58:23;35.38;;;7.55;;
58260;SDS011;44058;52.898;6.502;2024-01-25T11:01:00;32.72;;;7.68;;
58260;SDS011;44058;52.898;6.502;2024-01-25T11:03:27;32.05;;;7.35;;
58260;SDS011;44058;52.898;6.502;2024-01-25T11:05:54;26.42;;;6.85;;
58260;SDS011;44058;52.898;6.502;2024-01-25T11:08:23;31.75;;;6.63;;
58260;SDS011;44058;52.898;6.502;2024-01-25T11:10:50;32.63;;;6.32;;
58260;SDS011;44058;52.898;6.502;2024-01-25T11:13:23;32.28;;;7.78;;
58260;SDS011;44058;52.898;6.502;2024-01-25T11:15:51;30.65;;;6.45;;
58260;SDS011;44058;52.898;6.502;2024-01-25T11:18:18;25.60;;;6.13;;
58260;SDS011;44058;52.898;6.502;2024-01-25T11:20:46;26.98;;;5.93;;
58260;SDS011;44058;52.898;6.502;2024-01-25T11:23:14;31.33;;;6.60;;
58260;SDS011;44058;52.898;6.502;2024-01-25T11:25:44;30.60;;;7.72;;
58260;SDS011;44058;52.898;6.502;2024-01-25T11:28:14;29.48;;;6.70;;
58260;SDS011;44058;52.898;6.502;2024-01-25T11:30:42;32.20;;;6.68;;
58260;SDS011;44058;52.898;6.502;2024-01-25T11:33:09;26.60;;;6.45;;
58260;SDS011;44058;52.898;6.502;2024-01-25T11:35:36;30.02;;;7.35;;
58260;SDS011;44058;52.898;6.502;2024-01-25T11:38:04;27.75;;;6.93;;
58260;SDS011;44058;52.898;6.502;2024-01-25T11:40:31;31.42;;;7.50;;
58260;SDS011;44058;52.898;6.502;2024-01-25T11:42:58;32.83;;;7.18;;
58260;SDS011;44058;52.898;6.502;2024-01-25T11:45:24;36.13;;;7.47;;
58260;SDS011;44058;52.898;6.502;2024-01-25T11:47:52;32.88;;;8.00;;
58260;SDS011;44058;52.898;6.502;2024-01-25T11:50:19;32.45;;;6.68;;
58260;SDS011;44058;52.898;6.502;2024-01-25T11:52:48;33.25;;;7.05;;
58260;SDS011;44058;52.898;6.502;2024-01-25T11:55:16;34.08;;;7.38;;
58260;SDS011;44058;52.898;6.502;2024-01-25T11:57:43;42.55;;;8.20;;
58260;SDS011;44058;52.898;6.502;2024-01-25T12:00:12;32.97;;;7.80;;
58260;SDS011;44058;52.898;6.502;2024-01-25T12:02:40;32.38;;;7.88;;
58260;SDS011;44058;52.898;6.502;2024-01-25T12:05:08;29.38;;;8.23;;
58260;SDS011;44058;52.898;6.502;2024-01-25T12:07:36;26.25;;;7.43;;
58260;SDS011;44058;52.898;6.502;2024-01-25T12:10:04;31.40;;;7.78;;
58260;SDS011;44058;52.898;6.502;2024-01-25T12:12:31;29.15;;;7.45;;
58260;SDS011;44058;52.898;6.502;2024-01-25T12:14:59;33.72;;;7.43;;
58260;SDS011;44058;52.898;6.502;2024-01-25T12:17:29;36.25;;;7.68;;
58260;SDS011;44058;52.898;6.502;2024-01-25T12:19:57;32.10;;;6.47;;
58260;SDS011;44058;52.898;6.502;2024-01-25T12:22:24;26.90;;;6.43;;
58260;SDS011;44058;52.898;6.502;2024-01-25T12:24:54;29.30;;;6.63;;
58260;SDS011;44058;52.898;6.502;2024-01-25T12:27:21;30.73;;;7.28;;
58260;SDS011;44058;52.898;6.502;2024-01-25T12:29:49;33.72;;;7.40;;
58260;SDS011;44058;52.898;6.502;2024-01-25T12:32:16;32.35;;;7.07;;
58260;SDS011;44058;52.898;6.502;2024-01-25T12:34:52;29.73;;;6.25;;
58260;SDS011;44058;52.898;6.502;2024-01-25T12:37:19;25.92;;;6.80;;
58260;SDS011;44058;52.898;6.502;2024-01-25T12:39:46;26.42;;;7.18;;
58260;SDS011;44058;52.898;6.502;2024-01-25T12:42:13;28.40;;;6.63;;
58260;SDS011;44058;52.898;6.502;2024-01-25T12:44:40;32.55;;;7.05;;
58260;SDS011;44058;52.898;6.502;2024-01-25T12:47:08;35.42;;;6.53;;
58260;SDS011;44058;52.898;6.502;2024-01-25T12:49:35;26.38;;;6.68;;
58260;SDS011;44058;52.898;6.502;2024-01-25T12:52:01;36.58;;;7.90;;
58260;SDS011;44058;52.898;6.502;2024-01-25T12:54:28;31.10;;;8.52;;
58260;SDS011;44058;52.898;6.502;2024-01-25T12:56:55;39.83;;;8.07;;
58260;SDS011;44058;52.898;6.502;2024-01-25T12:59:21;30.33;;;6.75;;
58260;SDS011;44058;52.898;6.502;2024-01-25T13:01:48;24.85;;;7.28;;
58260;SDS011;44058;52.898;6.502;2024-01-25T13:04:14;29.92;;;7.25;;
58260;SDS011;44058;52.898;6.502;2024-01-25T13:06:40;38.45;;;8.15;;
58260;SDS011;44058;52.898;6.502;2024-01-25T13:09:06;33.00;;;8.20;;
58260;SDS011;44058;52.898;6.502;2024-01-25T13:11:33;31.95;;;9.55;;
58260;SDS011;44058;52.898;6.502;2024-01-25T13:13:59;35.35;;;9.90;;
58260;SDS011;44058;52.898;6.502;2024-01-25T13:16:25;34.20;;;8.57;;
58260;SDS011;44058;52.898;6.502;2024-01-25T13:18:52;31.42;;;8.75;;
58260;SDS011;44058;52.898;6.502;2024-01-25T13:21:18;30.88;;;8.07;;
58260;SDS011;44058;52.898;6.502;2024-01-25T13:23:44;38.38;;;9.02;;
58260;SDS011;44058;52.898;6.502;2024-01-25T13:26:10;33.97;;;8.25;;
58260;SDS011;44058;52.898;6.502;2024-01-25T13:28:36;36.05;;;7.65;;
58260;SDS011;44058;52.898;6.502;2024-01-25T13:31:03;30.95;;;7.85;;
58260;SDS011;44058;52.898;6.502;2024-01-25T13:33:29;23.65;;;6.88;;
58260;SDS011;44058;52.898;6.502;2024-01-25T13:35:55;27.95;;;6.82;;
58260;SDS011;44058;52.898;6.502;2024-01-25T13:38:21;30.88;;;6.70;;
58260;SDS011;44058;52.898;6.502;2024-01-25T13:40:47;25.10;;;6.15;;
58260;SDS011;44058;52.898;6.502;2024-01-25T13:43:14;26.88;;;5.88;;
58260;SDS011;44058;52.898;6.502;2024-01-25T13:45:40;27.98;;;6.60;;
58260;SDS011;44058;52.898;6.502;2024-01-25T13:48:06;24.95;;;5.03;;
58260;SDS011;44058;52.898;6.502;2024-01-25T13:50:32;26.65;;;5.72;;
58260;SDS011;44058;52.898;6.502;2024-01-25T13:52:58;22.35;;;4.85;;
58260;SDS011;44058;52.898;6.502;2024-01-25T13:55:25;28.67;;;6.05;;
58260;SDS011;44058;52.898;6.502;2024-01-25T13:57:52;25.20;;;5.60;;
58260;SDS011;44058;52.898;6.502;2024-01-25T14:00:19;21.05;;;4.88;;
58260;SDS011;44058;52.898;6.502;2024-01-25T14:02:46;26.60;;;5.22;;
58260;SDS011;44058;52.898;6.502;2024-01-25T14:05:13;24.52;;;5.43;;
58260;SDS011;44058;52.898;6.502;2024-01-25T14:07:40;24.58;;;5.75;;
58260;SDS011;44058;52.898;6.502;2024-01-25T14:10:08;26.27;;;5.15;;
58260;SDS011;44058;52.898;6.502;2024-01-25T14:12:35;21.33;;;4.78;;
58260;SDS011;44058;52.898;6.502;2024-01-25T14:15:02;27.95;;;5.35;;
58260;SDS011;44058;52.898;6.502;2024-01-25T14:17:29;25.60;;;5.63;;
58260;SDS011;44058;52.898;6.502;2024-01-25T14:19:56;24.80;;;5.18;;
58260;SDS011;44058;52.898;6.502;2024-01-25T14:22:23;23.10;;;4.80;;
58260;SDS011;44058;52.898;6.502;2024-01-25T14:24:50;28.88;;;5.40;;
58260;SDS011;44058;52.898;6.502;2024-01-25T14:27:17;22.38;;;4.68;;
58260;SDS011;44058;52.898;6.502;2024-01-25T14:29:44;23.02;;;5.03;;
58260;SDS011;44058;52.898;6.502;2024-01-25T14:32:11;25.80;;;4.95;;
58260;SDS011;44058;52.898;6.502;2024-01-25T14:34:38;24.35;;;4.93;;
58260;SDS011;44058;52.898;6.502;2024-01-25T14:37:06;23.92;;;5.13;;